Time;durP1;ratioP1;P1;durP2;ratioP2;P2;SDS_P1;SDS_P2;PMS_P1;PMS_P2;Temp;Humidity;BMP_temperature;BMP_pressure;BME280_temperature;BME280_humidity;BME280_pressure;Samples;Min_cycle;Max_cycle;Signal;HPM_P1;HPM_P2
2023/03/29 00:01:29;;;;;;;2.70;0.73;;;10.80;47.00;;;6.21;68.63;95894.09;4992462;28;20030;-47
2023/03/29 00:03:59;;;;;;;1.83;0.70;;;10.80;47.00;;;6.23;67.90;95909.75;4991427;28;20025;-47
2023/03/29 00:06:31;;;;;;;2.72;0.95;;;10.80;47.10;;;6.24;67.88;95914.81;4991659;28;20022;-47
2023/03/29 00:08:59;;;;;;;2.15;0.70;;;10.80;47.10;;;6.29;67.62;95908.03;4991460;28;20056;-47
2023/03/29 00:11:26;;;;;;;1.58;0.80;;;10.80;47.10;;;6.33;68.11;95917.94;4992417;28;20036;-47
2023/03/29 00:13:53;;;;;;;1.23;0.90;;;10.90;47.20;;;6.32;69.05;95915.50;4992276;28;20090;-48
2023/03/29 00:16:19;;;;;;;1.23;0.70;;;10.90;47.30;;;6.32;70.17;95910.22;4991395;28;20392;-48
2023/03/29 00:18:45;;;;;;;1.30;0.80;;;10.90;47.40;;;6.28;69.81;95909.06;4992173;28;20017;-48
2023/03/29 00:21:11;;;;;;;4.32;0.80;;;10.80;47.50;;;6.26;69.47;95915.38;4991386;28;20026;-48
2023/03/29 00:23:37;;;;;;;3.53;0.70;;;10.90;47.60;;;6.24;70.31;95925.41;4927858;28;1367025;-51
2023/03/29 00:26:04;;;;;;;1.15;0.60;;;10.80;47.70;;;6.24;70.41;95933.34;4993203;28;20068;-47
2023/03/29 00:28:30;;;;;;;3.75;0.82;;;10.80;47.80;;;6.21;70.36;95939.09;4991857;28;20482;-48
2023/03/29 00:31:13;;;;;;;1.08;0.77;;;10.80;47.90;;;6.22;69.82;95921.38;4975572;28;20070;-47
2023/03/29 00:33:41;;;;;;;1.23;0.80;;;10.80;48.10;;;6.21;70.76;95935.63;4991680;28;20359;-55
2023/03/29 00:36:11;;;;;;;3.60;0.60;;;10.80;48.10;;;6.18;70.31;95907.00;4975217;28;20024;-50
2023/03/29 00:38:38;;;;;;;0.95;0.80;;;10.80;48.20;;;6.12;71.22;95894.69;4991405;28;20057;-48
2023/03/29 00:41:07;;;;;;;3.28;0.70;;;10.80;48.20;;;6.14;68.57;95880.19;4959458;28;20388;-48
2023/03/29 00:43:58;;;;;;;2.20;0.60;;;10.80;48.20;;;6.26;69.96;95882.81;4975389;28;20408;-49
2023/03/29 00:46:28;;;;;;;2.78;0.70;;;10.80;48.30;;;6.27;69.46;95876.53;4991492;28;20026;-47
2023/03/29 00:49:06;;;;;;;0.98;0.70;;;10.80;49.00;;;6.35;68.97;95878.00;4975662;28;20031;-48
2023/03/29 00:51:40;;;;;;;2.22;0.52;;;10.90;48.50;;;6.41;66.98;95869.16;4991443;28;20033;-46
2023/03/29 00:54:13;;;;;;;1.00;0.70;;;10.90;48.40;;;6.52;66.42;95872.81;4992979;28;20029;-49
2023/03/29 00:56:48;;;;;;;1.00;0.82;;;10.90;48.30;;;6.58;66.08;95864.78;4974179;28;20045;-47
2023/03/29 00:59:31;;;;;;;1.50;0.90;;;11.00;48.20;;;6.67;66.34;95870.50;4975539;28;20451;-48
2023/03/29 01:02:04;;;;;;;1.15;0.80;;;11.00;48.10;;;6.68;68.25;95869.47;4992430;28;20107;-50
2023/03/29 01:04:56;;;;;;;1.48;0.80;;;11.10;48.10;;;6.64;67.65;95873.59;4973886;28;20025;-47
2023/03/29 01:07:46;;;;;;;2.78;0.70;;;11.10;48.00;;;6.61;67.36;95874.91;4959316;28;20021;-50
2023/03/29 01:10:38;;;;;;;0.88;0.73;;;11.10;48.60;;;6.59;68.64;95862.94;4974668;28;20362;-49
2023/03/29 01:13:15;;;;;;;0.77;0.60;;;11.20;48.00;;;6.56;68.07;95863.38;4975008;28;20033;-48
2023/03/29 01:15:45;;;;;;;1.00;0.70;;;11.20;47.90;;;6.52;66.60;95870.16;4991350;28;20026;-47
2023/03/29 01:18:12;;;;;;;1.75;0.50;;;11.20;47.80;;;6.55;66.65;95859.13;4974269;28;20387;-51
2023/03/29 01:21:43;;;;;;;2.92;0.80;;;11.20;47.80;;;6.58;66.51;95864.78;4991245;28;20060;-49
2023/03/29 01:24:28;;;;;;;0.52;0.50;;;11.20;47.70;;;6.61;66.92;95851.06;4881899;29;20055;-51
2023/03/29 01:27:33;;;;;;;0.63;0.50;;;11.20;47.80;;;6.62;67.33;95847.38;4968445;28;20034;-49
2023/03/29 01:30:13;;;;;;;0.65;0.57;;;11.20;47.90;;;6.56;66.59;95829.78;4957296;28;20388;-47
2023/03/29 01:33:09;;;;;;;0.93;0.60;;;11.20;47.80;;;6.59;66.96;95829.31;4956343;28;20302;-51
2023/03/29 01:36:03;;;;;;;2.72;0.70;;;11.20;47.70;;;6.62;67.17;95818.25;4969712;28;20030;-47
2023/03/29 01:38:51;;;;;;;1.67;0.70;;;11.20;47.80;;;6.62;65.14;95828.84;4990898;28;20567;-48
2023/03/29 01:41:17;;;;;;;2.53;0.82;;;11.20;47.70;;;6.66;65.08;95816.75;4955597;28;20045;-46
2023/03/29 01:44:00;;;;;;;1.52;0.88;;;11.20;47.50;;;6.68;66.38;95813.88;4954753;28;20053;-49
2023/03/29 01:46:51;;;;;;;;;;;11.20;47.60;;;6.69;66.93;95818.13;4971634;28;20369;-46
2023/03/29 01:49:36;;;;;;;2.97;0.60;;;11.30;47.40;;;6.67;65.46;95818.34;4991629;28;19906;-49
2023/03/29 01:52:28;;;;;;;1.00;0.70;;;11.30;47.50;;;6.66;65.35;95811.44;4991068;28;20018;-47
2023/03/29 01:55:07;;;;;;;4.07;0.70;;;11.30;47.50;;;6.64;65.01;95821.50;4991947;28;20056;-47
2023/03/29 01:57:39;;;;;;;0.50;0.40;;;11.30;47.40;;;6.67;63.83;95812.25;4989822;28;20029;-47
2023/03/29 02:00:11;;;;;;;1.00;0.60;;;11.30;47.40;;;6.69;63.81;95813.63;4974581;28;20519;-48
2023/03/29 02:02:44;;;;;;;1.60;0.80;;;11.30;47.40;;;6.75;63.71;95822.50;4973630;28;20041;-48
2023/03/29 02:05:13;;;;;;;;;;;11.30;47.40;;;6.79;63.08;95810.38;4992000;28;20029;-49
2023/03/29 02:07:44;;;;;;;4.60;0.77;;;11.30;47.20;;;6.80;63.40;95812.00;4974517;28;19955;-50
2023/03/29 02:10:15;;;;;;;1.95;0.60;;;11.30;47.30;;;6.83;63.29;95813.38;4973517;28;20156;-47
2023/03/29 02:12:41;;;;;;;0.88;0.70;;;11.40;47.30;;;6.86;63.40;95812.88;4973945;28;20109;-50
2023/03/29 02:15:19;;;;;;;1.90;0.73;;;11.40;47.30;;;6.88;62.87;95810.81;4973156;28;20036;-47
2023/03/29 02:17:48;;;;;;;1.58;0.60;;;11.30;47.20;;;6.89;62.71;95813.25;4974608;28;20029;-47
2023/03/29 02:20:37;;;;;;;1.30;0.70;;;11.40;47.30;;;6.93;62.85;95818.88;4991641;28;20026;-48
2023/03/29 02:23:35;;;;;;;2.40;0.70;;;11.50;47.30;;;6.95;63.27;95817.59;4971410;28;20129;-48
2023/03/29 02:26:05;;;;;;;0.93;0.68;;;11.50;47.20;;;6.95;62.49;95814.13;4972125;28;20033;-47
2023/03/29 02:28:32;;;;;;;2.20;0.70;;;11.50;47.20;;;6.98;62.66;95816.31;4971297;28;20026;-49
2023/03/29 02:31:28;;;;;;;0.93;0.70;;;11.50;47.10;;;6.97;64.74;95812.06;4995224;28;20388;-48
2023/03/29 02:34:25;;;;;;;1.10;0.77;;;11.50;47.20;;;6.93;63.84;95803.78;4976726;28;20032;-49
2023/03/29 02:36:59;;;;;;;0.88;0.60;;;11.50;47.20;;;6.91;64.09;95813.00;4995050;28;20021;-49
2023/03/29 02:39:31;;;;;;;2.60;0.70;;;11.50;47.20;;;6.91;64.09;95799.75;4977054;28;20025;-47
2023/03/29 02:42:00;;;;;;;2.50;0.65;;;11.50;47.20;;;6.89;63.92;95805.31;4977712;28;20026;-47
2023/03/29 02:44:33;;;;;;;1.20;0.70;;;11.50;47.10;;;6.92;65.12;95801.38;4976737;28;20022;-48
2023/03/29 02:47:20;;;;;;;2.88;0.65;;;11.50;47.20;;;6.89;66.27;95799.19;4994934;28;20025;-47
2023/03/29 02:49:46;;;;;;;0.95;0.70;;;11.50;47.40;;;6.86;66.18;95803.13;4978386;28;20021;-51
2023/03/29 02:52:22;;;;;;;3.42;0.88;;;11.50;47.30;;;6.83;65.51;95813.38;4993767;28;20041;-46
2023/03/29 02:54:54;;;;;;;4.07;0.73;;;11.50;47.40;;;6.81;64.67;95804.88;4977980;28;20025;-47
2023/03/29 02:57:25;;;;;;;1.10;0.68;;;11.50;47.90;;;6.81;64.68;95803.03;4976562;28;20025;-47
2023/03/29 02:59:56;;;;;;;0.90;0.60;;;11.50;47.60;;;6.81;66.55;95800.38;4994873;28;20017;-47
2023/03/29 03:02:26;;;;;;;2.25;0.60;;;11.50;47.40;;;6.81;66.95;95805.66;4994523;28;20034;-46
2023/03/29 03:04:53;;;;;;;0.50;0.50;;;11.40;47.50;;;6.78;66.39;95797.41;4957841;28;20428;-49
2023/03/29 03:07:19;;;;;;;0.60;0.50;;;11.50;48.10;;;6.76;66.87;95799.47;4975139;28;20084;-52
2023/03/29 03:09:48;;;;;;;1.17;0.60;;;11.50;47.60;;;6.75;66.32;95798.66;4983710;28;20014;-47
2023/03/29 03:12:14;;;;;;;0.60;0.60;;;11.50;47.60;;;6.72;66.89;95785.91;4994353;28;20057;-50
2023/03/29 03:14:40;;;;;;;1.48;0.50;;;11.40;47.60;;;6.67;67.99;95785.78;4993484;28;20049;-48
2023/03/29 03:17:05;;;;;;;1.30;0.70;;;11.50;47.70;;;6.66;68.42;95792.91;4994304;28;20025;-47
2023/03/29 03:19:31;;;;;;;1.05;0.75;;;11.40;47.70;;;6.62;68.45;95794.44;4994432;28;20052;-47
2023/03/29 03:21:58;;;;;;;0.85;0.65;;;11.40;47.80;;;6.62;68.26;95798.94;4992525;28;20117;-48
2023/03/29 03:24:24;;;;;;;1.63;0.77;;;11.30;47.80;;;6.61;67.67;95797.31;4976799;28;20048;-47
2023/03/29 03:26:50;;;;;;;2.33;0.75;;;11.30;47.90;;;6.59;69.31;95791.47;4975900;28;20037;-47
2023/03/29 03:29:16;;;;;;;5.35;0.57;;;11.30;48.00;;;6.58;68.42;95792.47;4976593;28;20029;-47
2023/03/29 03:31:42;;;;;;;4.18;0.70;;;11.30;48.10;;;6.54;69.02;95784.22;4994163;28;20181;-47
2023/03/29 03:34:08;;;;;;;1.85;0.70;;;11.30;48.20;;;6.53;69.41;95793.19;4992731;28;20040;-48
2023/03/29 03:36:34;;;;;;;1.17;0.88;;;11.30;48.20;;;6.49;68.29;95792.84;4993740;28;20030;-47
2023/03/29 03:39:04;;;;;;;1.13;0.60;;;11.30;48.30;;;6.51;68.09;95782.03;4975367;28;20107;-47
2023/03/29 03:41:31;;;;;;;0.80;0.50;;;11.20;48.30;;;6.53;67.84;95781.81;4975632;28;20029;-48
2023/03/29 03:43:58;;;;;;;2.03;0.80;;;11.20;48.30;;;6.53;69.75;95774.66;4993477;28;20017;-47
2023/03/29 03:46:23;;;;;;;2.25;0.50;;;11.20;48.40;;;6.51;70.16;95768.78;4975592;28;20032;-51
2023/03/29 03:48:50;;;;;;;2.58;0.98;;;11.20;48.60;;;6.49;70.43;95787.56;4993252;28;20017;-48
2023/03/29 03:51:16;;;;;;;1.70;0.77;;;11.20;48.60;;;6.45;69.75;95794.34;4992628;28;20026;-50
2023/03/29 03:53:42;;;;;;;0.93;0.70;;;11.20;48.80;;;6.41;70.11;95766.75;4993407;28;20025;-48
2023/03/29 03:56:08;;;;;;;0.50;0.50;;;11.20;48.80;;;6.41;71.06;95774.69;4976123;28;20034;-46
2023/03/29 03:58:36;;;;;;;1.25;0.60;;;11.10;48.80;;;6.43;72.26;95777.91;4975127;28;20688;-47
2023/03/29 04:01:04;;;;;;;3.25;0.68;;;11.10;48.90;;;6.41;70.52;95773.88;4987596;28;20530;-51
2023/03/29 04:03:31;;;;;;;1.42;0.65;;;11.10;48.90;;;6.36;69.59;95769.31;4988656;28;20041;-49
2023/03/29 04:06:01;;;;;;;1.95;0.65;;;11.10;48.90;;;6.37;71.47;95784.13;4981909;28;20018;-47
2023/03/29 04:08:27;;;;;;;1.85;0.70;;;11.10;49.10;;;6.38;71.46;95800.81;4973669;28;20030;-49
2023/03/29 04:10:57;;;;;;;0.68;0.50;;;11.10;49.20;;;6.37;70.92;95807.16;4986854;28;20033;-48
2023/03/29 04:13:25;;;;;;;2.97;0.65;;;11.00;49.20;;;6.34;70.45;95807.63;4972386;28;20521;-48
2023/03/29 04:15:55;;;;;;;2.00;0.80;;;11.10;49.30;;;6.31;70.01;95790.34;4975035;28;20112;-48
2023/03/29 04:18:23;;;;;;;1.40;0.75;;;11.10;49.30;;;6.33;71.81;95793.59;4985126;28;20030;-47
2023/03/29 04:20:50;;;;;;;2.35;0.68;;;11.00;49.30;;;6.33;70.95;95782.16;4975404;28;20037;-51
2023/03/29 04:23:16;;;;;;;2.13;0.57;;;11.00;49.40;;;6.34;71.80;95778.50;4992253;28;20045;-48
2023/03/29 04:25:43;;;;;;;2.10;0.80;;;11.00;49.50;;;6.34;70.99;95789.09;4975490;28;20022;-49
2023/03/29 04:28:11;;;;;;;2.15;0.60;;;11.00;49.50;;;6.26;71.07;95784.94;4974388;28;20033;-50
2023/03/29 04:30:37;;;;;;;2.33;0.65;;;11.00;49.50;;;6.24;71.70;95790.47;4975330;28;20017;-47
2023/03/29 04:33:03;;;;;;;1.95;0.70;;;11.00;49.50;;;6.25;70.91;95778.84;4990915;28;20037;-47
2023/03/29 04:35:29;;;;;;;2.88;0.60;;;11.00;49.60;;;6.27;70.71;95773.34;4992521;28;20022;-49
2023/03/29 04:37:55;;;;;;;1.35;0.45;;;11.00;49.60;;;6.29;70.39;95779.19;4974870;28;20025;-47
2023/03/29 04:40:21;;;;;;;3.28;0.68;;;11.00;49.60;;;6.30;69.70;95775.53;4991634;28;20030;-49
2023/03/29 04:42:47;;;;;;;2.70;0.50;;;11.00;49.60;;;6.33;68.57;95796.22;4974350;28;20124;-49
2023/03/29 04:45:16;;;;;;;3.97;0.90;;;11.00;49.60;;;6.42;69.10;95786.88;4991602;28;20503;-48
2023/03/29 04:47:44;;;;;;;0.93;0.60;;;11.00;49.70;;;6.46;68.20;95774.81;4991807;28;20109;-47
2023/03/29 04:50:12;;;;;;;3.22;0.60;;;11.00;49.60;;;6.52;68.21;95774.88;4992427;28;20028;-48
2023/03/29 04:52:39;;;;;;;1.30;0.80;;;11.00;49.60;;;6.55;67.15;95769.13;4990628;28;20026;-51
2023/03/29 04:55:07;;;;;;;1.27;0.80;;;11.00;49.60;;;6.59;67.57;95776.38;4992334;28;20021;-48
2023/03/29 04:57:33;;;;;;;3.08;0.70;;;11.10;49.50;;;6.63;66.79;95776.72;4965191;28;20030;-47
2023/03/29 04:59:59;;;;;;;1.77;0.70;;;11.10;49.50;;;6.65;67.24;95786.03;4972689;28;20018;-47
2023/03/29 05:02:25;;;;;;;1.10;0.60;;;11.20;49.50;;;6.65;67.10;95780.75;4972191;28;20112;-47
2023/03/29 05:04:51;;;;;;;2.05;0.70;;;11.20;49.40;;;6.67;67.06;95777.84;4990955;28;20575;-50
2023/03/29 05:07:17;;;;;;;2.20;0.75;;;11.20;49.40;;;6.67;66.35;95778.63;4974518;28;20025;-49
2023/03/29 05:09:44;;;;;;;5.50;0.95;;;11.20;49.30;;;6.70;64.54;95793.25;4969278;28;20026;-48
2023/03/29 05:12:09;;;;;;;5.05;0.93;;;11.20;49.20;;;6.82;64.14;95780.00;4972227;28;20033;-46
2023/03/29 05:14:35;;;;;;;1.45;1.15;;;11.30;49.10;;;6.92;63.50;95804.81;4972276;28;20022;-53
2023/03/29 05:17:01;;;;;;;2.47;1.10;;;11.30;49.10;;;7.05;62.28;95794.97;4972384;28;20084;-49
2023/03/29 05:19:29;;;;;;;1.95;1.10;;;11.40;48.90;;;7.14;62.05;95793.56;4942500;28;20026;-47
2023/03/29 05:21:54;;;;;;;4.75;1.08;;;11.50;48.90;;;7.19;65.42;95777.75;4966679;28;20528;-47
2023/03/29 05:24:21;;;;;;;1.55;1.00;;;11.50;48.80;;;7.19;64.26;95797.09;4972063;28;20042;-52
2023/03/29 05:26:50;;;;;;;2.42;0.80;;;11.60;48.80;;;7.22;65.73;95802.97;4971812;28;20034;-50
2023/03/29 05:29:16;;;;;;;2.83;0.80;;;11.60;48.80;;;7.19;66.16;95812.22;4954930;28;20029;-52
2023/03/29 05:31:42;;;;;;;3.25;0.90;;;11.70;48.80;;;7.17;65.48;95801.81;5015161;23;20156;-49
2023/03/29 05:34:08;;;;;;;6.22;1.08;;;11.70;48.70;;;7.13;66.82;95790.09;5005692;28;20112;-49
2023/03/29 05:36:34;;;;;;;1.70;0.88;;;11.70;48.80;;;7.05;67.35;95792.31;5000641;28;20044;-51
2023/03/29 05:39:00;;;;;;;3.03;1.02;;;11.70;48.80;;;7.09;67.54;95796.94;4993720;28;20440;-49
2023/03/29 05:41:26;;;;;;;4.50;0.85;;;11.70;48.80;;;7.08;69.10;95792.69;4996078;28;20033;-48
2023/03/29 05:43:52;;;;;;;2.05;1.00;;;11.70;48.90;;;7.06;68.94;95796.59;4991184;28;20022;-50
2023/03/29 05:46:18;;;;;;;2.70;0.70;;;11.70;49.00;;;7.03;68.95;95792.59;4980943;28;20049;-53
2023/03/29 05:48:44;;;;;;;2.97;0.95;;;11.70;49.10;;;7.00;69.14;95787.75;4957427;28;20414;-46
2023/03/29 05:51:10;;;;;;;3.75;0.90;;;11.70;49.10;;;6.96;70.63;95781.34;4990768;28;20045;-47
2023/03/29 05:53:36;;;;;;;2.20;0.80;;;11.70;49.20;;;6.95;70.39;95782.34;4991284;28;20026;-47
2023/03/29 05:56:02;;;;;;;7.82;1.10;;;11.70;49.30;;;6.92;69.52;95794.22;4991639;28;20029;-49
2023/03/29 05:58:29;;;;;;;5.63;1.08;;;11.70;49.30;;;6.97;69.44;95803.31;4990430;28;20108;-47
2023/03/29 06:00:55;;;;;;;5.13;0.98;;;11.70;49.30;;;6.99;70.62;95790.63;4991636;28;20037;-48
2023/03/29 06:03:26;;;;;;;1.23;0.70;;;11.60;49.40;;;6.99;71.37;95780.84;4990124;28;20079;-53
2023/03/29 06:06:02;;;;;;;4.22;0.82;;;11.70;49.50;;;7.00;71.09;95782.47;4991674;28;20109;-55
2023/03/29 06:08:31;;;;;;;2.83;1.10;;;11.80;49.60;;;6.99;69.94;95788.81;4975355;28;20350;-48
2023/03/29 06:11:07;;;;;;;3.28;0.80;;;11.80;49.50;;;7.07;70.11;95803.50;4993490;28;20084;-48
2023/03/29 06:13:34;;;;;;;2.15;0.85;;;11.80;49.60;;;7.12;70.04;95808.91;4992183;28;20025;-54
2023/03/29 06:16:00;;;;;;;2.35;0.80;;;11.90;49.60;;;7.04;69.96;95814.56;4982909;28;20140;-51
2023/03/29 06:18:26;;;;;;;2.97;0.80;;;11.90;49.50;;;7.08;69.73;95797.97;4974959;28;20049;-49
2023/03/29 06:20:53;;;;;;;4.00;0.95;;;11.90;49.50;;;7.13;69.40;95791.97;4987810;28;20085;-48
2023/03/29 06:23:20;;;;;;;2.40;0.85;;;11.90;49.40;;;7.22;70.81;95795.03;4991755;28;20034;-49
2023/03/29 06:25:50;;;;;;;5.43;0.90;;;12.00;49.50;;;7.27;70.90;95793.28;4977242;28;20037;-49
2023/03/29 06:28:18;;;;;;;9.23;1.55;;;12.10;49.60;;;7.31;70.69;95801.56;4993941;28;20056;-48
2023/03/29 06:30:48;;;;;;;1.30;0.80;;;12.10;49.60;;;7.39;69.19;95801.16;4994784;28;20516;-52
2023/03/29 06:33:15;;;;;;;3.15;0.93;;;12.20;49.50;;;7.45;68.08;95805.50;4985832;28;20124;-53
2023/03/29 06:35:46;;;;;;;1.33;0.90;;;12.30;49.40;;;7.54;67.67;95793.47;4994528;28;20026;-49
2023/03/29 06:38:13;;;;;;;2.00;1.00;;;12.40;49.30;;;7.64;68.08;95804.22;4994503;28;20030;-52
2023/03/29 06:40:41;;;;;;;4.57;0.90;;;12.50;49.30;;;7.71;66.50;95808.56;4976119;28;20169;-52
2023/03/29 06:43:08;;;;;;;2.55;0.70;;;12.60;49.10;;;7.78;66.37;95802.09;4994402;28;20030;-49
2023/03/29 06:45:37;;;;;;;0.85;0.57;;;12.70;49.00;;;7.89;66.41;95803.84;4992949;28;20026;-49
2023/03/29 06:48:09;;;;;;;1.35;0.90;;;12.80;48.90;;;7.98;64.81;95809.53;4993891;28;20053;-50
2023/03/29 06:50:36;;;;;;;2.15;0.82;;;12.80;48.80;;;8.11;64.32;95817.16;4993625;28;20022;-51
2023/03/29 06:53:03;;;;;;;1.15;0.73;;;12.90;48.70;;;8.20;64.26;95814.91;4981966;28;20117;-50
2023/03/29 06:55:30;;;;;;;2.20;0.75;;;13.00;48.60;;;8.33;64.19;95811.91;4975164;28;20548;-49
2023/03/29 06:57:56;;;;;;;2.75;0.60;;;13.10;48.60;;;8.40;61.00;95803.81;4985866;28;20030;-51
2023/03/29 07:00:28;;;;;;;4.30;1.42;;;13.20;48.40;;;8.51;61.58;95808.19;4994298;28;20507;-51
2023/03/29 07:03:00;;;;;;;2.42;0.70;;;13.30;48.10;;;8.57;63.12;95811.72;4992410;28;20091;-51
2023/03/29 07:05:28;;;;;;;2.28;0.80;;;13.30;48.00;;;8.66;60.65;95812.13;4994472;28;20548;-50
2023/03/29 07:10:27;;;;;;;3.42;0.80;;;13.50;47.60;;;8.78;59.67;95813.59;4993630;28;20030;-51
2023/03/29 07:12:54;;;;;;;3.65;0.90;;;13.60;47.40;;;8.86;59.71;95816.88;4993838;28;20033;-49
2023/03/29 07:15:21;;;;;;;1.77;0.90;;;13.60;47.20;;;8.90;60.10;95825.94;4992977;28;20484;-48
2023/03/29 07:17:50;;;;;;;2.90;0.70;;;13.70;47.20;;;8.89;60.33;95811.84;4993640;28;20030;-49
2023/03/29 07:20:16;;;;;;;4.72;1.00;;;13.80;47.10;;;8.87;60.59;95821.94;4994132;28;20179;-49
2023/03/29 07:22:46;;;;;;;3.20;1.10;;;13.80;47.00;;;8.90;61.51;95815.31;4992409;28;20447;-49
2023/03/29 07:25:12;;;;;;;4.68;0.90;;;13.90;46.90;;;8.89;61.49;95819.03;4993973;28;20114;-49
2023/03/29 07:27:41;;;;;;;3.08;1.13;;;13.90;46.90;;;8.87;61.95;95821.94;4993069;28;20025;-47
2023/03/29 07:30:12;;;;;;;2.30;0.80;;;13.90;46.80;;;8.89;62.51;95827.00;4993520;28;20021;-48
2023/03/29 07:32:43;;;;;;;2.42;0.90;;;14.00;46.80;;;8.88;62.42;95831.50;4992704;28;20032;-52
2023/03/29 07:35:11;;;;;;;2.08;1.42;;;14.00;46.80;;;8.96;62.11;95840.88;4984709;28;20484;-50
2023/03/29 07:37:41;;;;;;;1.92;0.95;;;14.00;46.70;;;8.99;61.15;95843.88;4976230;28;20124;-50
2023/03/29 07:40:15;;;;;;;4.43;0.90;;;14.10;46.70;;;9.05;60.52;95847.38;4992852;28;20108;-54
2023/03/29 07:42:44;;;;;;;1.92;0.82;;;14.00;46.60;;;9.07;60.54;95844.47;4992874;28;20508;-53
2023/03/29 07:45:12;;;;;;;4.55;1.05;;;14.10;46.40;;;9.13;61.33;95841.63;4992846;28;20113;-50
2023/03/29 07:47:40;;;;;;;1.65;0.77;;;14.20;46.50;;;9.24;62.11;95834.56;4992936;28;20120;-53
2023/03/29 07:50:08;;;;;;;1.52;0.90;;;14.30;46.40;;;9.31;60.23;95837.84;4993702;28;20491;-49
2023/03/29 07:52:37;;;;;;;2.38;1.13;;;14.40;46.30;;;9.43;60.63;95846.50;4992338;28;20171;-50
2023/03/29 07:55:13;;;;;;;2.10;0.90;;;14.50;46.20;;;9.54;59.77;95841.25;4993110;28;20109;-49
2023/03/29 07:57:42;;;;;;;2.22;0.85;;;14.70;46.20;;;9.62;58.66;95844.28;4992775;28;20025;-48
2023/03/29 08:00:14;;;;;;;3.13;0.85;;;14.90;45.90;;;9.77;58.63;95840.94;4993227;28;20024;-51
2023/03/29 08:02:51;;;;;;;1.48;0.90;;;15.10;45.70;;;9.92;58.30;95846.38;4992009;28;20528;-52
2023/03/29 08:05:21;;;;;;;1.52;0.95;;;15.30;45.40;;;10.03;58.64;95841.97;4984986;28;20079;-47
2023/03/29 08:07:48;;;;;;;1.70;0.95;;;15.50;45.30;;;10.23;58.36;95854.63;4993083;28;20200;-48
2023/03/29 08:10:21;;;;;;;1.35;0.85;;;15.70;45.20;;;10.33;56.66;95853.91;4992132;28;20384;-47
2023/03/29 08:12:49;;;;;;;;;;;15.80;44.90;;;10.46;55.94;95860.66;4993019;28;20500;-49
2023/03/29 08:15:15;;;;;;;1.63;1.10;;;15.90;44.90;;;10.50;57.62;95859.91;4992161;28;19912;-50
2023/03/29 08:17:42;;;;;;;2.65;1.10;;;16.00;44.60;;;10.57;56.82;95855.16;4975238;28;20365;-47
2023/03/29 08:20:14;;;;;;;3.15;0.98;;;16.10;44.40;;;10.61;56.53;95855.44;4992768;28;20527;-49
2023/03/29 08:22:40;;;;;;;3.33;0.98;;;16.20;44.30;;;10.63;56.89;95858.66;4991446;28;20072;-48
2023/03/29 08:25:08;;;;;;;2.13;0.82;;;16.20;44.10;;;10.77;56.95;95866.97;4992650;28;20386;-47
2023/03/29 08:27:36;;;;;;;2.70;1.00;;;16.30;44.00;;;10.92;56.71;95864.38;4991179;28;20030;-47
2023/03/29 08:30:06;;;;;;;7.80;1.20;;;16.40;43.80;;;11.10;56.54;95871.13;4992455;28;20447;-47
2023/03/29 08:32:32;;;;;;;2.55;0.93;;;16.50;43.90;;;11.18;54.72;95872.50;4991835;28;20523;-51
2023/03/29 08:35:00;;;;;;;3.72;1.00;;;16.60;43.90;;;11.27;53.93;95865.59;4992191;28;20025;-47
2023/03/29 08:37:25;;;;;;;2.28;1.10;;;16.70;43.60;;;11.32;53.22;95871.75;4992467;28;20476;-47
2023/03/29 08:39:51;;;;;;;3.15;1.02;;;16.80;43.30;;;11.45;53.61;95864.31;4991565;28;20029;-47
2023/03/29 08:42:49;;;;;;;4.68;1.20;;;16.90;43.20;;;11.56;53.25;95865.94;4992091;28;20065;-47
2023/03/29 08:46:12;;;;;;;5.03;1.27;;;17.00;42.80;;;11.67;51.14;95864.91;4991469;28;20025;-48
2023/03/29 08:48:46;;;;;;;2.38;0.85;;;17.20;42.60;;;11.86;51.90;95861.75;4986199;28;20037;-51
2023/03/29 08:51:28;;;;;;;3.53;1.20;;;17.50;42.30;;;12.01;51.34;95867.91;4991207;28;20496;-47
2023/03/29 08:54:46;;;;;;;1.58;1.00;;;17.60;42.00;;;12.01;50.01;95869.78;4975193;28;20040;-50
2023/03/29 08:57:34;;;;;;;5.05;1.00;;;17.70;41.50;;;12.15;51.25;95868.16;4991385;28;20018;-48
2023/03/29 09:00:09;;;;;;;4.75;1.08;;;17.80;41.30;;;12.23;49.24;95864.19;4991805;28;20040;-51
2023/03/29 09:02:37;;;;;;;2.83;1.10;;;17.90;41.00;;;12.34;49.76;95876.44;4974397;28;20099;-50
2023/03/29 09:05:46;;;;;;;4.68;1.10;;;18.10;40.80;;;12.58;50.97;95881.25;4982236;28;20030;-50
2023/03/29 09:08:18;;;;;;;5.18;1.27;;;18.30;40.60;;;12.67;49.05;95877.75;4976577;28;20035;-49
2023/03/29 09:11:11;;;;;;;4.82;1.08;;;18.50;40.40;;;12.73;49.08;95884.69;4957006;28;20106;-46
2023/03/29 09:13:57;;;;;;;2.05;1.10;;;18.70;40.00;;;12.64;48.25;95874.81;4972674;28;20026;-47
2023/03/29 09:16:58;;;;;;;1.35;1.00;;;18.80;39.60;;;12.84;48.06;95869.41;4985162;28;20014;-50
2023/03/29 09:20:18;;;;;;;3.35;1.10;;;18.90;39.50;;;12.86;47.86;95871.84;4976343;28;20408;-49
2023/03/29 09:23:32;;;;;;;3.42;1.20;;;19.00;39.00;;;13.17;47.62;95859.16;4974613;28;20442;-50
2023/03/29 09:26:46;;;;;;;4.05;1.50;;;19.10;38.80;;;13.34;47.08;95843.59;4972851;28;20022;-48
2023/03/29 09:29:49;;;;;;;;;;;19.30;38.50;;;13.37;46.75;95855.63;4974250;28;20042;-50
2023/03/29 09:32:44;;;;;;;3.33;1.35;;;19.50;38.80;;;13.45;46.08;95843.56;4970375;28;19952;-50
2023/03/29 09:35:52;;;;;;;2.17;1.17;;;19.60;38.30;;;13.43;46.67;95857.19;4982620;28;20034;-51
2023/03/29 09:38:21;;;;;;;4.10;1.33;;;19.50;38.00;;;13.46;47.08;95855.84;4970768;28;20127;-51
2023/03/29 09:41:15;;;;;;;3.88;1.20;;;19.50;37.90;;;13.48;48.02;95849.16;4982774;28;20021;-51
2023/03/29 09:43:44;;;;;;;2.17;1.00;;;19.50;37.80;;;13.61;47.36;95851.22;4975760;28;20080;-52
2023/03/29 09:46:29;;;;;;;2.45;1.00;;;19.60;37.80;;;13.70;48.05;95850.63;4990868;28;20036;-47
2023/03/29 09:48:56;;;;;;;2.38;1.40;;;19.60;37.70;;;13.67;47.25;95845.84;4959872;28;20528;-49
2023/03/29 09:51:28;;;;;;;4.50;1.55;;;19.60;37.80;;;13.32;47.86;95850.31;4977295;28;20026;-50
2023/03/29 09:53:56;;;;;;;2.85;1.25;;;19.50;37.40;;;13.36;48.88;95843.31;4974496;28;20022;-47
2023/03/29 09:56:23;;;;;;;4.55;1.50;;;19.40;37.50;;;13.21;48.59;95854.84;4991621;28;20053;-54
2023/03/29 09:58:48;;;;;;;5.95;1.20;;;19.30;37.60;;;13.23;48.87;95858.06;4977036;28;20473;-50
2023/03/29 10:01:19;;;;;;;7.38;1.40;;;19.10;37.70;;;13.10;49.33;95851.44;4972600;28;20045;-48
2023/03/29 10:03:53;;;;;;;4.10;1.38;;;18.90;37.90;;;13.16;49.85;95847.66;4979689;28;20026;-51
2023/03/29 10:06:25;;;;;;;6.35;1.17;;;18.90;38.10;;;13.07;49.33;95851.19;4972103;28;20037;-52
2023/03/29 10:08:57;;;;;;;5.53;0.95;;;18.80;38.10;;;13.07;51.69;95853.84;4972943;28;20037;-55
2023/03/29 10:11:33;;;;;;;2.28;1.23;;;18.80;38.40;;;13.14;49.71;95854.34;4990103;28;20109;-52
2023/03/29 10:14:15;;;;;;;4.60;1.27;;;18.90;38.40;;;13.20;49.22;95848.72;4991670;28;20044;-50
2023/03/29 10:16:47;;;;;;;3.55;1.30;;;18.90;38.40;;;13.23;48.42;95854.59;4973025;28;20088;-49
2023/03/29 10:19:36;;;;;;;3.38;1.60;;;19.00;38.30;;;13.28;49.14;95847.34;4990902;28;20061;-51
2023/03/29 10:22:13;;;;;;;4.35;1.40;;;19.10;38.20;;;13.40;48.97;95849.72;4990420;28;20038;-47
2023/03/29 10:24:39;;;;;;;3.15;1.70;;;19.40;38.10;;;13.58;48.48;95845.59;4977644;28;20033;-48
2023/03/29 10:27:10;;;;;;;4.53;1.20;;;19.60;37.80;;;13.70;48.72;95843.41;4974436;28;20018;-51
2023/03/29 10:29:42;;;;;;;4.85;1.25;;;19.80;37.50;;;13.90;47.70;95845.13;4991368;28;20030;-52
2023/03/29 10:32:34;;;;;;;1.83;1.20;;;20.00;37.40;;;14.04;48.00;95850.63;4991218;28;20037;-49
2023/03/29 10:35:13;;;;;;;4.22;1.42;;;20.10;37.20;;;14.19;46.91;95844.38;4990812;28;20029;-51
2023/03/29 10:37:47;;;;;;;8.45;1.70;;;20.30;37.00;;;14.33;48.10;95845.31;4991153;28;20120;-47
2023/03/29 10:40:31;;;;;;;6.53;1.77;;;20.40;37.00;;;14.27;45.55;95841.88;4990239;28;20022;-54
2023/03/29 10:43:13;;;;;;;4.10;1.50;;;20.60;36.50;;;14.43;46.24;95833.72;4990153;28;20030;-51
2023/03/29 10:45:41;;;;;;;5.07;1.55;;;20.70;36.20;;;14.44;46.88;95835.31;4990045;28;20021;-50
2023/03/29 10:48:14;;;;;;;7.32;1.48;;;20.70;36.20;;;14.49;45.86;95825.34;4991256;28;20050;-50
2023/03/29 10:50:41;;;;;;;1.52;1.10;;;20.80;36.10;;;14.48;46.88;95820.28;4992621;28;20026;-53
2023/03/29 10:53:36;;;;;;;3.42;1.38;;;20.80;35.90;;;14.87;46.01;95817.47;4974119;28;20084;-48